createdAt,value
2017-03-20T00:00:29.413Z,82.07
2017-03-20T00:01:30.678Z,82.38
2017-03-20T00:02:28.875Z,82.33
2017-03-20T00:03:30.955Z,82.18
2017-03-20T00:04:30.174Z,82.69
2017-03-20T00:05:25.746Z,82.69
2017-03-20T00:06:30.973Z,82.54
2017-03-20T00:07:30.242Z,82.60
2017-03-20T00:08:30.640Z,82.30
2017-03-20T00:09:25.929Z,82.60
2017-03-20T00:10:36.807Z,82.38
2017-03-20T00:11:25.360Z,82.63
2017-03-20T00:12:35.416Z,82.54
2017-03-20T00:13:40.113Z,82.56
2017-03-20T00:14:30.481Z,83.18
2017-03-20T00:15:35.566Z,82.90
2017-03-20T00:16:35.598Z,82.48
2017-03-20T00:17:30.327Z,82.35
2017-03-20T00:18:34.373Z,82.74
2017-03-20T00:19:30.674Z,82.61
2017-03-20T00:20:32.360Z,82.22
2017-03-20T00:21:30.271Z,81.99
2017-03-20T00:22:30.487Z,82.04
2017-03-20T00:23:29.155Z,82.08
2017-03-20T00:24:25.010Z,82.12
2017-03-20T00:25:31.222Z,82.07
2017-03-20T00:26:30.249Z,82.33
2017-03-20T00:27:37.958Z,82.25
2017-03-20T00:28:30.951Z,81.89
2017-03-20T00:29:30.154Z,81.67
2017-03-20T00:31:25.162Z,82.08
2017-03-20T00:32:29.807Z,82.34
2017-03-20T00:33:28.678Z,82.11
2017-03-20T00:34:32.453Z,82.12
2017-03-20T00:35:29.162Z,81.90
2017-03-20T00:36:30.397Z,81.84
2017-03-20T00:37:30.991Z,81.90
2017-03-20T00:38:24.132Z,81.91
2017-03-20T00:39:30.008Z,81.92
2017-03-20T00:40:33.243Z,82.54
2017-03-20T00:41:24.911Z,82.13
2017-03-20T00:42:24.271Z,82.51
2017-03-20T00:43:31.175Z,82.29
2017-03-20T00:44:25.881Z,82.03
2017-03-20T00:45:31.390Z,82.16
2017-03-20T00:46:31.142Z,82.04
2017-03-20T00:47:33.160Z,82.07
2017-03-20T00:48:33.260Z,81.81
2017-03-20T00:49:25.179Z,81.79
2017-03-20T00:50:29.744Z,82.00
2017-03-20T00:51:31.135Z,82.06
2017-03-20T00:52:32.388Z,81.95
2017-03-20T00:53:37.783Z,81.61
2017-03-20T00:54:29.437Z,81.87
2017-03-20T00:55:37.565Z,82.36
2017-03-20T00:56:39.893Z,82.47
2017-03-20T00:57:31.050Z,82.29
2017-03-20T00:58:25.825Z,81.59
2017-03-20T00:59:28.195Z,81.28
2017-03-20T01:00:43.176Z,81.21
2017-03-20T01:01:31.273Z,81.06
2017-03-20T01:02:35.173Z,81.00
2017-03-20T01:03:33.841Z,80.95
2017-03-20T01:04:42.875Z,80.86
2017-03-20T01:05:31.215Z,81.16
2017-03-20T01:06:37.211Z,80.81
2017-03-20T01:07:25.707Z,81.00
2017-03-20T01:08:25.965Z,81.21
2017-03-20T01:09:42.761Z,80.84
2017-03-20T01:10:19.989Z,80.73
2017-03-20T01:11:30.105Z,80.45
2017-03-20T01:12:29.804Z,80.42
2017-03-20T01:13:34.357Z,80.35
2017-03-20T01:14:19.862Z,80.18
2017-03-20T01:15:25.838Z,80.12
2017-03-20T01:16:28.160Z,80.33
2017-03-20T01:17:31.008Z,80.05
2017-03-20T01:18:33.234Z,80.00
2017-03-20T01:19:30.758Z,79.64
2017-03-20T01:20:34.452Z,80.12
2017-03-20T01:21:45.034Z,79.84
2017-03-20T01:22:28.873Z,80.23
2017-03-20T01:23:33.483Z,79.87
2017-03-20T01:24:31.185Z,79.94
2017-03-20T01:25:36.520Z,79.75
2017-03-20T01:26:24.671Z,79.69
2017-03-20T01:27:30.569Z,79.74
2017-03-20T01:28:32.042Z,79.81
2017-03-20T01:29:34.332Z,80.44
2017-03-20T01:30:33.312Z,80.12
2017-03-20T01:31:32.443Z,79.85
2017-03-20T01:32:30.111Z,79.73
2017-03-20T01:33:37.030Z,79.91
2017-03-20T01:34:32.097Z,79.80
2017-03-20T01:35:24.204Z,79.97
2017-03-20T01:36:24.291Z,79.69
2017-03-20T01:37:24.922Z,79.40
2017-03-20T01:38:28.082Z,79.54
2017-03-20T01:39:28.372Z,79.33
2017-03-20T01:40:38.018Z,79.06
2017-03-20T01:41:30.612Z,80.15
2017-03-20T01:42:29.371Z,79.73
2017-03-20T01:43:30.240Z,79.46
2017-03-20T01:44:25.023Z,79.44
2017-03-20T01:45:29.553Z,79.02
2017-03-20T01:46:24.815Z,79.10
2017-03-20T01:47:24.682Z,79.21
2017-03-20T01:48:32.321Z,79.13
2017-03-20T01:49:30.433Z,79.23
2017-03-20T01:50:30.561Z,79.34
2017-03-20T01:51:32.192Z,79.50
2017-03-20T01:52:37.002Z,79.64
2017-03-20T01:53:33.428Z,79.52
2017-03-20T01:54:37.306Z,79.86
2017-03-20T01:55:31.537Z,79.65
2017-03-20T01:56:37.730Z,79.41
2017-03-20T01:57:31.074Z,79.34
2017-03-20T01:58:39.497Z,79.16
2017-03-20T01:59:34.836Z,78.91
2017-03-20T02:00:25.987Z,79.89
2017-03-20T02:01:30.146Z,80.15
2017-03-20T02:02:34.552Z,80.07
2017-03-20T02:03:29.507Z,80.52
2017-03-20T02:04:35.066Z,80.09
2017-03-20T02:05:19.441Z,79.68
2017-03-20T02:06:30.486Z,79.42
2017-03-20T02:07:30.800Z,79.24
2017-03-20T02:08:24.990Z,79.46
2017-03-20T02:09:30.758Z,79.53
2017-03-20T02:10:31.186Z,79.66
2017-03-20T02:11:29.760Z,79.78
2017-03-20T02:12:42.005Z,79.34
2017-03-20T02:13:32.428Z,79.10
2017-03-20T02:14:39.568Z,78.93
2017-03-20T02:15:27.380Z,78.98
2017-03-20T02:16:25.553Z,79.29
2017-03-20T02:17:30.843Z,79.37
2017-03-20T02:18:32.877Z,79.16
2017-03-20T02:19:36.191Z,78.68
2017-03-20T02:20:39.559Z,79.04
2017-03-20T02:21:23.569Z,79.00
2017-03-20T02:22:41.031Z,78.95
2017-03-20T02:23:30.380Z,79.07
2017-03-20T02:24:30.606Z,78.87
2017-03-20T02:25:29.416Z,78.52
2017-03-20T02:26:30.021Z,78.66
2017-03-20T02:27:32.023Z,78.39
2017-03-20T02:28:24.578Z,78.42
2017-03-20T02:29:30.830Z,78.21
2017-03-20T02:30:29.619Z,78.30
2017-03-20T02:31:30.946Z,78.28
2017-03-20T02:32:25.752Z,78.35
2017-03-20T02:33:34.883Z,78.31
2017-03-20T02:34:31.217Z,78.47
2017-03-20T02:35:30.903Z,78.39
2017-03-20T02:36:30.378Z,78.22
2017-03-20T02:37:32.094Z,78.11
2017-03-20T02:38:25.319Z,78.28
2017-03-20T02:39:25.001Z,77.88
2017-03-20T02:40:25.062Z,77.78
2017-03-20T02:41:30.712Z,77.55
2017-03-20T02:42:23.761Z,77.42
2017-03-20T02:43:25.409Z,77.60
2017-03-20T02:44:30.651Z,78.03
2017-03-20T02:45:29.858Z,77.82
2017-03-20T02:46:28.958Z,77.82
2017-03-20T02:47:33.622Z,77.62
2017-03-20T02:48:30.390Z,77.50
2017-03-20T02:49:30.839Z,77.34
2017-03-20T02:50:29.776Z,77.25
2017-03-20T02:51:30.846Z,77.82
2017-03-20T02:52:28.316Z,77.27
2017-03-20T02:53:28.186Z,76.87
2017-03-20T02:54:28.427Z,76.83
2017-03-20T02:55:25.140Z,76.84
2017-03-20T02:56:30.207Z,76.58
2017-03-20T02:57:30.018Z,76.51
2017-03-20T02:58:30.150Z,76.47
2017-03-20T02:59:31.848Z,76.54
2017-03-20T03:00:34.499Z,76.43
2017-03-20T03:01:32.291Z,76.23
2017-03-20T03:02:34.113Z,76.61
2017-03-20T03:03:38.090Z,76.52
2017-03-20T03:04:29.764Z,76.30
2017-03-20T03:05:37.930Z,76.03
2017-03-20T03:06:32.325Z,76.50
2017-03-20T03:07:43.840Z,76.59
2017-03-20T03:08:30.081Z,76.54
2017-03-20T03:09:32.369Z,76.25
2017-03-20T03:10:35.165Z,76.26
2017-03-20T03:11:30.934Z,76.50
2017-03-20T03:12:30.483Z,76.52
2017-03-20T03:13:42.217Z,76.32
2017-03-20T03:14:26.829Z,76.29
2017-03-20T03:15:34.575Z,76.45
2017-03-20T03:16:30.889Z,76.19
2017-03-20T03:17:25.097Z,76.03
2017-03-20T03:18:43.509Z,76.43
2017-03-20T03:19:33.912Z,76.20
2017-03-20T03:20:43.286Z,76.18
2017-03-20T03:21:29.906Z,76.09
2017-03-20T03:22:39.039Z,76.16
2017-03-20T03:23:28.231Z,76.40
2017-03-20T03:24:29.547Z,76.52
2017-03-20T03:25:30.568Z,76.38
2017-03-20T03:26:30.820Z,76.27
2017-03-20T03:27:30.554Z,76.08
2017-03-20T03:28:29.456Z,76.01
2017-03-20T03:29:31.172Z,76.10
2017-03-20T03:30:34.620Z,76.14
2017-03-20T03:31:30.433Z,76.60
2017-03-20T03:32:30.551Z,76.42
2017-03-20T03:33:37.410Z,76.20
2017-03-20T03:34:30.904Z,76.62
2017-03-20T03:35:29.713Z,76.48
2017-03-20T03:36:29.410Z,76.26
2017-03-20T03:37:31.211Z,76.66
2017-03-20T03:38:30.555Z,76.20
2017-03-20T03:39:35.214Z,76.07
2017-03-20T03:40:30.526Z,75.96
2017-03-20T03:41:36.391Z,76.14
2017-03-20T03:42:30.569Z,76.11
2017-03-20T03:43:30.889Z,76.25
2017-03-20T03:44:25.429Z,76.18
2017-03-20T03:45:29.871Z,76.21
2017-03-20T03:46:29.666Z,76.18
2017-03-20T03:47:23.405Z,75.97
2017-03-20T03:48:30.742Z,76.21
2017-03-20T03:49:30.431Z,76.58
2017-03-20T03:50:29.294Z,76.63
2017-03-20T03:51:29.773Z,76.76
2017-03-20T03:52:31.589Z,76.93
2017-03-20T03:53:36.111Z,77.15
2017-03-20T03:54:24.020Z,77.03
2017-03-20T03:55:24.802Z,77.48
2017-03-20T03:56:30.806Z,77.18
2017-03-20T03:57:30.416Z,77.32
2017-03-20T03:58:32.426Z,76.90
2017-03-20T03:59:30.305Z,76.95
2017-03-20T04:00:30.099Z,77.14
2017-03-20T04:01:29.875Z,77.14
2017-03-20T04:02:37.965Z,77.20
2017-03-20T04:03:38.834Z,76.95
2017-03-20T04:04:30.065Z,76.84
2017-03-20T04:05:30.715Z,76.66
2017-03-20T04:06:30.594Z,77.06
2017-03-20T04:07:30.504Z,77.35
2017-03-20T04:08:26.858Z,77.37
2017-03-20T04:09:35.953Z,77.69
2017-03-20T04:10:30.521Z,77.70
2017-03-20T04:11:25.159Z,77.83
2017-03-20T04:12:30.343Z,77.94
2017-03-20T04:13:30.528Z,78.16
2017-03-20T04:14:31.186Z,78.46
2017-03-20T04:15:31.617Z,78.11
2017-03-20T04:16:30.650Z,78.34
2017-03-20T04:17:30.307Z,78.70
2017-03-20T04:18:30.475Z,78.69
2017-03-20T04:19:30.643Z,78.59
2017-03-20T04:20:36.842Z,78.52
2017-03-20T04:21:33.165Z,78.60
2017-03-20T04:22:31.072Z,78.45
2017-03-20T04:23:30.292Z,79.02
2017-03-20T04:24:30.518Z,79.42
2017-03-20T04:25:23.565Z,79.30
2017-03-20T04:26:31.178Z,79.62
2017-03-20T04:27:25.858Z,79.51
2017-03-20T04:28:30.966Z,79.44
2017-03-20T04:29:35.581Z,79.32
2017-03-20T04:30:36.063Z,79.50
2017-03-20T04:31:38.073Z,79.87
2017-03-20T04:32:37.810Z,79.93
2017-03-20T04:33:30.982Z,79.75
2017-03-20T04:34:44.477Z,79.41
2017-03-20T04:35:30.224Z,79.31
2017-03-20T04:36:40.622Z,79.59
2017-03-20T04:37:30.959Z,79.85
2017-03-20T04:38:30.445Z,79.98
2017-03-20T04:39:30.972Z,79.84
2017-03-20T04:40:26.069Z,79.82
2017-03-20T04:41:31.095Z,79.79
2017-03-20T04:42:25.168Z,80.24
2017-03-20T04:43:44.794Z,80.15
2017-03-20T04:44:27.153Z,80.42
2017-03-20T04:45:35.704Z,80.93
2017-03-20T04:46:33.243Z,81.13
2017-03-20T04:47:45.632Z,81.34
2017-03-20T04:48:35.721Z,80.97
2017-03-20T04:49:30.982Z,81.02
2017-03-20T04:50:39.363Z,80.54
2017-03-20T04:51:31.104Z,80.28
2017-03-20T04:52:27.254Z,80.57
2017-03-20T04:53:28.538Z,80.40
2017-03-20T04:54:30.676Z,80.50
2017-03-20T04:55:29.383Z,80.36
2017-03-20T04:56:30.981Z,80.57
2017-03-20T04:57:30.088Z,80.60
2017-03-20T04:58:24.386Z,80.28
2017-03-20T04:59:30.572Z,80.68
2017-03-20T05:00:33.205Z,81.01
2017-03-20T05:01:27.612Z,80.97
2017-03-20T05:02:30.271Z,80.72
2017-03-20T05:03:37.176Z,81.00
2017-03-20T05:04:30.268Z,81.26
2017-03-20T05:05:30.373Z,80.92
2017-03-20T05:06:30.373Z,80.89
2017-03-20T05:07:26.312Z,80.67
2017-03-20T05:08:31.042Z,80.56
2017-03-20T05:09:30.295Z,80.88
2017-03-20T05:10:33.567Z,81.15
2017-03-20T05:11:30.611Z,80.84
2017-03-20T05:12:30.591Z,81.06
2017-03-20T05:13:30.934Z,81.52
2017-03-20T05:14:30.090Z,81.04
2017-03-20T05:15:29.903Z,80.80
2017-03-20T05:16:25.325Z,81.19
2017-03-20T05:18:30.132Z,81.50
2017-03-20T05:19:37.994Z,81.42
2017-03-20T05:20:30.376Z,81.11
2017-03-20T05:21:34.583Z,81.20
2017-03-20T05:22:25.784Z,81.02
2017-03-20T05:23:30.559Z,81.32
2017-03-20T05:24:26.787Z,81.55
2017-03-20T05:26:30.416Z,81.12
2017-03-20T05:27:37.656Z,81.19
2017-03-20T05:28:32.796Z,81.15
2017-03-20T05:29:31.057Z,81.13
2017-03-20T05:30:39.617Z,81.15
2017-03-20T05:31:43.723Z,81.13
2017-03-20T05:32:37.405Z,81.00
2017-03-20T05:33:30.554Z,81.47
2017-03-20T05:34:32.597Z,81.03
2017-03-20T05:35:30.669Z,81.06
2017-03-20T05:36:38.252Z,80.64
2017-03-20T05:37:30.303Z,80.92
2017-03-20T05:38:25.054Z,81.01
2017-03-20T05:39:30.952Z,80.99
2017-03-20T05:40:29.005Z,80.69
2017-03-20T05:41:29.978Z,80.69
2017-03-20T05:42:24.956Z,80.47
2017-03-20T05:43:30.693Z,80.71
2017-03-20T05:44:30.942Z,80.35
2017-03-20T05:45:37.012Z,80.43
2017-03-20T05:46:30.766Z,80.65
2017-03-20T05:47:35.380Z,80.44
2017-03-20T05:48:24.560Z,80.42
2017-03-20T05:49:29.784Z,80.23
2017-03-20T05:50:29.881Z,80.62
2017-03-20T05:51:30.209Z,80.77
2017-03-20T05:52:25.265Z,81.07
2017-03-20T05:53:30.774Z,81.17
2017-03-20T05:54:24.887Z,80.88
2017-03-20T05:55:31.062Z,80.87
2017-03-20T05:56:35.009Z,80.57
2017-03-20T05:57:34.969Z,80.57
2017-03-20T05:58:23.372Z,80.43
2017-03-20T05:59:30.084Z,80.74
2017-03-20T06:00:33.209Z,80.80
2017-03-20T06:01:37.933Z,80.62
2017-03-20T06:02:30.194Z,80.54
2017-03-20T06:03:29.696Z,80.59
2017-03-20T06:04:31.835Z,80.41
2017-03-20T06:05:31.012Z,80.64
2017-03-20T06:06:34.795Z,80.87
2017-03-20T06:07:25.286Z,81.13
2017-03-20T06:08:39.764Z,80.81
2017-03-20T06:09:26.878Z,80.56
2017-03-20T06:10:34.289Z,80.75
2017-03-20T06:11:28.428Z,81.17
2017-03-20T06:12:24.959Z,81.06
2017-03-20T06:13:27.924Z,81.45
2017-03-20T06:14:30.510Z,81.24
2017-03-20T06:15:34.048Z,81.56
2017-03-20T06:16:30.502Z,82.25
2017-03-20T06:17:29.803Z,82.24
2017-03-20T06:18:30.499Z,82.48
2017-03-20T06:19:43.065Z,82.76
2017-03-20T06:20:30.461Z,83.02
2017-03-20T06:21:29.354Z,83.86
2017-03-20T06:22:24.895Z,84.13
2017-03-20T06:23:30.685Z,84.77
2017-03-20T06:24:24.331Z,85.43
2017-03-20T06:25:30.811Z,84.89
2017-03-20T06:26:30.420Z,84.96
2017-03-20T06:27:29.297Z,84.50
2017-03-20T06:28:30.176Z,84.92
2017-03-20T06:29:34.578Z,84.96
2017-03-20T06:30:35.293Z,85.15
2017-03-20T06:31:32.783Z,85.75
2017-03-20T06:32:31.111Z,85.60
2017-03-20T06:33:31.132Z,85.52
2017-03-20T06:34:25.924Z,85.70
2017-03-20T06:35:30.539Z,85.76
2017-03-20T06:36:38.245Z,85.85
2017-03-20T06:37:24.936Z,85.59
2017-03-20T06:38:30.804Z,86.25
2017-03-20T06:39:35.046Z,86.03
2017-03-20T06:40:30.059Z,86.15
2017-03-20T06:41:25.843Z,86.74
2017-03-20T06:42:23.064Z,86.47
2017-03-20T06:43:18.624Z,86.17
2017-03-20T06:44:11.057Z,86.34
2017-03-20T06:45:44.384Z,86.52
2017-03-20T06:46:32.796Z,86.42
2017-03-20T06:47:39.799Z,86.66
2017-03-20T06:48:33.058Z,87.15
2017-03-20T06:49:32.356Z,87.14
2017-03-20T06:50:25.064Z,86.66
2017-03-20T06:51:24.761Z,86.67
2017-03-20T06:52:32.561Z,87.21
2017-03-20T06:53:29.890Z,87.42
2017-03-20T06:54:28.773Z,87.95
2017-03-20T06:55:29.907Z,87.70
2017-03-20T06:56:24.205Z,87.73
2017-03-20T06:57:20.905Z,87.12
2017-03-20T06:58:42.585Z,86.72
2017-03-20T06:59:20.521Z,86.72
2017-03-20T07:00:37.353Z,86.81
2017-03-20T07:01:25.009Z,87.02
2017-03-20T07:02:26.617Z,87.05
2017-03-20T07:03:25.394Z,87.13
2017-03-20T07:04:36.228Z,87.06
2017-03-20T07:05:30.305Z,88.13
2017-03-20T07:06:31.075Z,87.85
2017-03-20T07:07:32.901Z,87.55
2017-03-20T07:08:28.098Z,87.08
2017-03-20T07:09:30.556Z,87.11
2017-03-20T07:10:30.324Z,86.94
2017-03-20T07:11:24.717Z,87.44
2017-03-20T07:12:30.877Z,87.74
2017-03-20T07:13:25.376Z,87.37
2017-03-20T07:14:29.585Z,87.84
2017-03-20T07:15:32.079Z,88.08
2017-03-20T07:16:28.954Z,88.08
2017-03-20T07:17:24.029Z,87.52
2017-03-20T07:18:38.789Z,87.64
2017-03-20T07:19:30.233Z,87.59
2017-03-20T07:20:30.286Z,87.52
2017-03-20T07:21:38.937Z,87.77
2017-03-20T07:22:30.910Z,87.38
2017-03-20T07:23:25.011Z,87.04
2017-03-20T07:24:30.118Z,87.12
2017-03-20T07:25:24.629Z,87.94
2017-03-20T07:26:36.543Z,88.37
2017-03-20T07:27:30.925Z,88.14
2017-03-20T07:28:30.879Z,87.56
2017-03-20T07:29:34.036Z,87.19
2017-03-20T07:30:30.602Z,87.12
2017-03-20T07:31:30.646Z,87.29
2017-03-20T07:32:28.633Z,88.08
2017-03-20T07:33:30.328Z,88.49
2017-03-20T07:34:24.702Z,88.03
2017-03-20T07:35:42.362Z,87.64
2017-03-20T07:36:30.602Z,88.50
2017-03-20T07:37:30.738Z,88.73
2017-03-20T07:38:34.521Z,88.63
2017-03-20T07:39:28.753Z,88.95
2017-03-20T07:40:30.519Z,89.72
2017-03-20T07:41:23.552Z,89.30
2017-03-20T07:42:25.615Z,89.36
2017-03-20T07:43:30.110Z,89.29
2017-03-20T07:44:24.375Z,88.44
2017-03-20T07:45:25.194Z,88.84
2017-03-20T07:46:24.798Z,88.63
2017-03-20T07:47:44.611Z,88.19
2017-03-20T07:48:25.828Z,88.27
2017-03-20T07:49:25.186Z,87.40
2017-03-20T07:50:29.965Z,87.87
2017-03-20T07:51:30.647Z,87.19
2017-03-20T07:52:33.684Z,87.22
2017-03-20T07:53:23.936Z,87.27
2017-03-20T07:54:33.017Z,87.66
2017-03-20T07:55:25.174Z,88.13
2017-03-20T07:56:30.343Z,87.48
2017-03-20T07:57:39.344Z,87.15
2017-03-20T07:58:30.337Z,87.81
2017-03-20T07:59:24.876Z,88.46
2017-03-20T08:00:30.288Z,88.39
2017-03-20T08:01:26.348Z,88.52
2017-03-20T08:02:35.013Z,88.30
2017-03-20T08:03:30.318Z,88.11
2017-03-20T08:04:30.764Z,88.44
2017-03-20T08:05:26.433Z,89.08
2017-03-20T08:06:24.858Z,88.30
2017-03-20T08:07:31.056Z,88.19
2017-03-20T08:08:24.995Z,88.04
2017-03-20T08:09:24.794Z,87.71
2017-03-20T08:10:29.932Z,87.17
2017-03-20T08:11:26.056Z,86.81
2017-03-20T08:12:28.240Z,86.61
2017-03-20T08:13:30.320Z,85.21
2017-03-20T08:14:30.309Z,85.81
2017-03-20T09:04:41.428Z,83.13
2017-03-20T09:05:25.929Z,81.93
2017-03-20T09:05:38.361Z,81.34
2017-03-20T09:06:30.518Z,80.74
2017-03-20T09:07:38.144Z,80.29
2017-03-20T09:08:18.676Z,80.08
2017-03-20T09:09:37.685Z,80.40
2017-03-20T09:10:30.183Z,80.74
2017-03-20T09:11:30.260Z,80.62
2017-03-20T09:12:24.798Z,80.84
2017-03-20T09:13:29.930Z,81.31
2017-03-20T09:14:30.074Z,80.63
2017-03-20T09:15:30.452Z,79.91
2017-03-20T09:16:30.035Z,78.87
2017-03-20T09:17:26.113Z,78.25
2017-03-20T09:18:30.419Z,80.13
2017-03-20T09:19:28.737Z,78.97
2017-03-20T09:20:25.262Z,79.24
2017-03-20T09:21:33.997Z,79.87
2017-03-20T09:22:24.350Z,78.46
2017-03-20T09:23:28.688Z,77.93
2017-03-20T09:24:30.544Z,77.71
2017-03-20T09:25:31.121Z,77.53
2017-03-20T09:26:40.023Z,78.72
2017-03-20T09:27:24.061Z,79.46
2017-03-20T09:28:25.190Z,80.50
2017-03-20T09:29:28.171Z,80.53
2017-03-20T09:30:30.886Z,79.99
2017-03-20T09:31:26.590Z,80.37
2017-03-20T09:32:39.038Z,80.11
2017-03-20T09:33:34.507Z,80.02
2017-03-20T09:34:30.342Z,80.03
2017-03-20T09:35:27.120Z,80.26
2017-03-20T09:36:30.590Z,81.20
2017-03-20T09:37:33.548Z,81.26
2017-03-20T09:38:29.395Z,81.21
2017-03-20T09:39:30.946Z,79.99
2017-03-20T09:40:25.125Z,80.26
2017-03-20T09:41:25.877Z,79.91
2017-03-20T09:42:25.890Z,80.36
2017-03-20T09:43:30.288Z,79.29
2017-03-20T09:44:25.339Z,79.16
2017-03-20T09:45:30.699Z,78.21
2017-03-20T09:46:24.750Z,77.90
2017-03-20T09:47:39.491Z,77.99
2017-03-20T09:48:28.090Z,79.19
2017-03-20T09:49:30.147Z,79.46
2017-03-20T09:50:25.306Z,79.69
2017-03-20T09:51:30.513Z,79.01
2017-03-20T09:52:30.751Z,79.94
2017-03-20T09:53:19.891Z,79.02
2017-03-20T09:54:33.833Z,78.14
2017-03-20T09:55:35.038Z,77.27
2017-03-20T09:56:33.466Z,77.41
2017-03-20T09:57:24.071Z,78.00
2017-03-20T09:58:24.944Z,77.75
2017-03-20T09:59:34.369Z,76.56
2017-03-20T10:00:39.381Z,77.60
2017-03-20T10:01:31.083Z,77.11
2017-03-20T10:02:24.393Z,76.95
2017-03-20T10:03:25.935Z,76.46
2017-03-20T10:04:26.835Z,77.12
2017-03-20T10:05:35.100Z,77.34
2017-03-20T10:06:25.290Z,76.80
2017-03-20T10:07:24.787Z,76.50
2017-03-20T10:08:25.376Z,75.87
2017-03-20T10:09:30.533Z,76.24
2017-03-20T10:10:24.643Z,76.24
2017-03-20T10:11:34.182Z,76.45
2017-03-20T10:12:32.322Z,76.42
2017-03-20T10:13:31.028Z,76.38
2017-03-20T10:14:30.837Z,75.21
2017-03-20T10:15:30.522Z,74.57
2017-03-20T10:16:30.687Z,74.75
2017-03-20T10:17:25.247Z,75.60
2017-03-20T10:18:39.639Z,75.91
2017-03-20T10:19:30.884Z,75.58
2017-03-20T10:20:36.010Z,75.61
2017-03-20T10:21:28.650Z,75.99
2017-03-20T10:22:24.754Z,76.39
2017-03-20T10:23:31.474Z,76.48
2017-03-20T10:24:30.317Z,76.16
2017-03-20T10:25:30.189Z,75.01
2017-03-20T10:26:28.240Z,75.04
2017-03-20T10:27:28.500Z,74.85
2017-03-20T10:28:34.324Z,74.36
2017-03-20T10:29:34.300Z,73.79
2017-03-20T10:30:29.254Z,73.42
2017-03-20T10:31:35.540Z,74.27
2017-03-20T10:32:25.095Z,73.13
2017-03-20T10:33:25.207Z,71.93
2017-03-20T10:34:30.307Z,71.28
2017-03-20T10:35:28.439Z,70.93
2017-03-20T10:36:33.280Z,71.32
2017-03-20T10:37:33.833Z,71.55
2017-03-20T10:38:30.190Z,70.70
2017-03-20T10:39:26.428Z,70.12
2017-03-20T10:40:30.799Z,70.28
2017-03-20T10:41:29.984Z,69.87
2017-03-20T10:42:24.411Z,68.05
2017-03-20T10:43:26.005Z,68.10
2017-03-20T10:44:30.222Z,68.07
2017-03-20T10:45:34.519Z,68.21
2017-03-20T10:46:32.374Z,68.74
2017-03-20T10:47:25.298Z,69.16
2017-03-20T10:48:28.349Z,69.41
2017-03-20T10:49:32.191Z,69.10
2017-03-20T10:50:34.731Z,69.21
2017-03-20T10:51:39.345Z,67.49
2017-03-20T10:52:31.370Z,67.02
2017-03-20T10:53:26.543Z,66.58
2017-03-20T10:54:35.773Z,66.51
2017-03-20T10:55:24.751Z,66.34
2017-03-20T10:56:30.390Z,66.44
2017-03-20T10:57:26.410Z,65.94
2017-03-20T10:58:28.600Z,65.13
2017-03-20T10:59:24.882Z,64.94
2017-03-20T11:00:29.092Z,64.79
2017-03-20T11:01:38.779Z,65.23
2017-03-20T11:02:30.671Z,65.55
2017-03-20T11:03:30.101Z,65.62
2017-03-20T11:04:27.036Z,66.45
2017-03-20T11:05:45.265Z,65.73
2017-03-20T11:06:30.570Z,64.94
2017-03-20T11:07:29.128Z,65.64
2017-03-20T11:08:29.226Z,65.26
2017-03-20T11:09:35.014Z,65.58
2017-03-20T11:10:31.314Z,66.26
2017-03-20T11:11:26.303Z,65.31
2017-03-20T11:12:30.314Z,64.62
2017-03-20T11:13:26.098Z,64.72
2017-03-20T11:14:37.710Z,65.32
2017-03-20T11:15:30.407Z,65.44
2017-03-20T11:16:30.753Z,65.89
2017-03-20T11:17:33.349Z,65.34
2017-03-20T11:18:28.121Z,64.91
2017-03-20T11:19:24.242Z,64.07
2017-03-20T11:20:29.537Z,63.45
2017-03-20T11:21:33.362Z,63.46
2017-03-20T11:22:44.004Z,63.20
2017-03-20T11:23:37.414Z,62.93
2017-03-20T11:24:31.101Z,62.19
2017-03-20T11:25:28.241Z,63.19
2017-03-20T11:26:30.443Z,62.55
2017-03-20T11:27:37.591Z,62.69
2017-03-20T11:28:30.936Z,62.78
2017-03-20T11:29:34.060Z,63.10
2017-03-20T11:30:34.083Z,62.97
2017-03-20T11:31:25.465Z,62.73
2017-03-20T11:32:24.988Z,62.51
2017-03-20T11:33:19.775Z,62.24
2017-03-20T11:34:30.909Z,62.13
2017-03-20T11:35:36.645Z,62.40
2017-03-20T11:36:26.948Z,62.99
2017-03-20T11:37:41.321Z,62.59
2017-03-20T11:38:28.421Z,62.37
2017-03-20T11:39:34.077Z,62.85
2017-03-20T11:40:38.614Z,62.86
2017-03-20T11:41:30.797Z,63.32
2017-03-20T11:42:25.361Z,63.84
2017-03-20T11:43:30.380Z,63.89
2017-03-20T11:44:33.590Z,63.83
2017-03-20T11:45:30.787Z,64.30
2017-03-20T11:46:20.143Z,63.93
2017-03-20T11:47:16.914Z,64.11
2017-03-20T11:48:30.385Z,64.35
2017-03-20T11:49:25.055Z,64.48
2017-03-20T11:50:39.321Z,63.95
2017-03-20T11:51:24.428Z,64.05
2017-03-20T11:52:24.553Z,63.91
2017-03-20T11:53:37.655Z,64.31
2017-03-20T11:54:28.086Z,64.40
2017-03-20T11:55:31.017Z,63.97
2017-03-20T11:56:30.191Z,62.91
2017-03-20T11:57:26.245Z,62.10
2017-03-20T11:58:30.800Z,61.82
2017-03-20T11:59:29.566Z,62.26
2017-03-20T12:00:38.429Z,62.49
2017-03-20T12:01:29.248Z,62.57
2017-03-20T12:02:33.489Z,62.21
2017-03-20T12:03:25.990Z,62.60
2017-03-20T12:04:24.419Z,62.26
2017-03-20T12:05:25.378Z,62.16
2017-03-20T12:06:30.474Z,62.13
2017-03-20T12:07:30.807Z,62.15
2017-03-20T12:08:31.635Z,62.47
2017-03-20T12:09:30.592Z,62.65
2017-03-20T12:10:26.351Z,62.95
2017-03-20T12:11:26.654Z,63.00
2017-03-20T12:12:26.162Z,62.93
2017-03-20T12:13:26.734Z,63.29
2017-03-20T12:14:30.834Z,62.97
2017-03-20T12:15:24.984Z,63.02
2017-03-20T12:16:30.094Z,62.62
2017-03-20T12:17:30.959Z,62.22
2017-03-20T12:18:26.931Z,62.33
2017-03-20T12:19:34.125Z,61.98
2017-03-20T12:20:34.278Z,62.00
2017-03-20T12:21:33.451Z,61.58
2017-03-20T12:22:35.582Z,61.89
2017-03-20T12:23:36.029Z,62.54
2017-03-20T12:24:33.630Z,61.42
2017-03-20T12:25:30.780Z,61.38
2017-03-20T12:26:30.922Z,61.09
2017-03-20T12:27:33.456Z,61.36
2017-03-20T12:28:26.936Z,61.15
2017-03-20T12:29:34.038Z,60.78
2017-03-20T12:30:30.932Z,60.36
2017-03-20T12:31:24.430Z,60.37
2017-03-20T12:32:26.025Z,59.25
2017-03-20T12:33:30.250Z,59.03
2017-03-20T12:34:25.493Z,58.47
2017-03-20T12:35:35.380Z,58.51
2017-03-20T12:36:37.618Z,58.57
2017-03-20T12:37:30.726Z,58.45
2017-03-20T12:38:24.791Z,58.39
2017-03-20T12:39:24.728Z,58.55
2017-03-20T12:40:24.990Z,58.22
2017-03-20T12:41:24.772Z,57.85
2017-03-20T12:42:34.959Z,56.67
2017-03-20T12:43:30.046Z,56.06
2017-03-20T12:44:29.874Z,55.60
2017-03-20T12:45:47.981Z,55.86
2017-03-20T12:46:34.053Z,56.63
2017-03-20T12:47:24.785Z,55.91
2017-03-20T12:48:25.524Z,56.99
2017-03-20T12:49:33.712Z,56.95
2017-03-20T12:50:30.135Z,56.37
2017-03-20T12:51:25.561Z,55.98
2017-03-20T12:52:30.117Z,55.23
2017-03-20T12:53:32.650Z,55.13
2017-03-20T12:54:29.906Z,55.94
2017-03-20T12:55:31.123Z,56.63
2017-03-20T12:56:23.016Z,56.28
2017-03-20T12:57:24.311Z,57.65
2017-03-20T12:58:34.184Z,57.34
2017-03-20T12:59:24.750Z,58.04
2017-03-20T13:00:28.960Z,57.70
2017-03-20T13:01:23.878Z,57.46
2017-03-20T13:02:28.752Z,56.84
2017-03-20T13:03:38.881Z,55.81
2017-03-20T13:04:29.045Z,55.71
2017-03-20T13:05:38.103Z,55.35
2017-03-20T13:06:34.200Z,55.06
2017-03-20T13:07:26.821Z,54.90
2017-03-20T13:08:34.778Z,53.93
2017-03-20T13:09:30.438Z,53.68
2017-03-20T13:10:26.019Z,53.59
2017-03-20T13:11:30.699Z,53.94
2017-03-20T13:12:43.351Z,54.34
2017-03-20T13:13:25.459Z,54.91
2017-03-20T13:14:30.962Z,54.11
2017-03-20T13:15:33.639Z,54.29
2017-03-20T13:16:25.705Z,54.88
2017-03-20T13:17:25.890Z,55.26
2017-03-20T13:18:30.141Z,55.28
2017-03-20T13:19:26.137Z,55.46
2017-03-20T13:20:34.087Z,55.35
2017-03-20T13:21:24.714Z,55.55
2017-03-20T13:22:30.885Z,55.45
2017-03-20T13:23:36.287Z,55.75
2017-03-20T13:24:34.019Z,55.41
2017-03-20T13:25:30.906Z,55.38
2017-03-20T13:26:30.840Z,54.98
2017-03-20T13:27:31.009Z,54.79
2017-03-20T13:28:23.023Z,54.69
2017-03-20T13:29:27.229Z,55.08
2017-03-20T13:30:33.758Z,55.21
2017-03-20T13:31:33.377Z,55.01
2017-03-20T13:32:30.597Z,55.07
2017-03-20T13:33:30.745Z,55.09
2017-03-20T13:34:26.187Z,54.98
2017-03-20T13:35:35.386Z,55.44
2017-03-20T13:36:31.665Z,54.76
2017-03-20T13:37:33.180Z,53.50
2017-03-20T13:38:19.370Z,53.19
2017-03-20T13:39:32.893Z,53.39
2017-03-20T13:40:30.549Z,54.17
2017-03-20T13:41:30.278Z,53.82
2017-03-20T13:42:28.367Z,52.84
2017-03-20T13:43:34.159Z,50.88